Time;durP1;ratioP1;P1;durP2;ratioP2;P2;SDS_P1;SDS_P2;PMS_P1;PMS_P2;Temp;Humidity;BMP_temperature;BMP_pressure;BME280_temperature;BME280_humidity;BME280_pressure;Samples;Min_cycle;Max_cycle;Signal;HPM_P1;HPM_P2
2023/09/23 00:01:34;;;;;;;0.40;0.20;;;11.40;99.90;;;;;;5001549;28;20202;-84
2023/09/23 00:03:59;;;;;;;0.40;0.20;;;11.40;99.90;;;;;;5000638;28;20206;-84
2023/09/23 00:06:25;;;;;;;0.40;0.30;;;11.30;99.90;;;;;;4998230;28;20197;-77
2023/09/23 00:08:50;;;;;;;0.40;0.20;;;11.30;99.90;;;;;;4996046;28;20178;-81
2023/09/23 00:11:16;;;;;;;0.40;0.23;;;11.40;99.90;;;;;;4999986;28;20190;-79
2023/09/23 00:13:42;;;;;;;0.40;0.20;;;11.30;99.90;;;;;;4978068;28;20687;-83
2023/09/23 00:16:11;;;;;;;0.82;0.82;;;11.30;99.90;;;;;;4982586;28;20202;-83
2023/09/23 00:18:38;;;;;;;0.40;0.30;;;;;;;;;;4999296;28;20306;-83
2023/09/23 00:21:05;;;;;;;0.40;0.30;;;11.20;99.90;;;;;;4998818;28;20186;-80
2023/09/23 00:23:33;;;;;;;0.40;0.20;;;11.20;99.90;;;;;;4980114;28;20214;-79
2023/09/23 00:26:00;;;;;;;0.40;0.30;;;11.20;99.90;;;;;;4997550;28;20256;-80
2023/09/23 00:28:30;;;;;;;0.40;0.30;;;11.10;99.90;;;;;;5003283;28;20381;-79
2023/09/23 00:31:14;;;;;;;0.40;0.20;;;11.10;99.90;;;;;;5001669;28;20187;-80
2023/09/23 00:33:41;;;;;;;0.40;0.30;;;11.10;99.90;;;;;;5002486;28;20194;-80
2023/09/23 00:36:08;;;;;;;0.40;0.30;;;;;;;;;;5002239;28;20333;-81
2023/09/23 00:38:38;;;;;;;0.40;0.20;;;11.10;99.90;;;;;;5003155;28;20213;-79
2023/09/23 00:41:06;;;;;;;0.40;0.30;;;11.10;99.90;;;;;;5001333;28;20223;-81
2023/09/23 00:43:34;;;;;;;0.40;0.30;;;11.30;99.90;;;;;;4986203;28;20696;-77
2023/09/23 00:46:03;;;;;;;0.40;0.30;;;11.30;99.90;;;;;;5013704;28;20195;-80
2023/09/23 00:48:31;;;;;;;0.40;0.30;;;;;;;;;;5002917;28;20575;-83
2023/09/23 00:50:56;;;;;;;0.40;0.20;;;11.40;99.90;;;;;;5000995;28;20204;-78
2023/09/23 00:53:24;;;;;;;0.40;0.30;;;11.50;99.90;;;;;;5002701;28;20562;-77
2023/09/23 00:55:55;;;;;;;0.40;0.30;;;;;;;;;;5012271;28;20213;-82
2023/09/23 00:58:21;;;;;;;0.40;0.20;;;11.40;99.90;;;;;;4987617;28;20182;-77
2023/09/23 01:00:51;;;;;;;0.40;0.20;;;11.30;99.90;;;;;;5003897;28;20179;-80
2023/09/23 01:03:18;;;;;;;0.40;0.30;;;11.30;99.90;;;;;;5006282;28;20205;-84
2023/09/23 01:05:44;;;;;;;0.40;0.30;;;11.30;99.90;;;;;;5005395;28;20261;-83
2023/09/23 01:08:29;;;;;;;0.40;0.20;;;11.40;99.90;;;;;;5014429;28;20210;-79
2023/09/23 01:10:55;;;;;;;0.40;0.30;;;;;;;;;;5007617;28;20441;-81
2023/09/23 01:13:24;;;;;;;0.40;0.20;;;11.40;99.90;;;;;;5008811;28;20248;-84
2023/09/23 01:15:51;;;;;;;0.40;0.20;;;11.40;99.90;;;;;;5006437;28;20554;-80
2023/09/23 01:18:17;;;;;;;0.40;0.20;;;11.30;99.90;;;;;;5006769;28;20630;-79
2023/09/23 01:20:45;;;;;;;0.40;0.20;;;11.20;99.90;;;;;;5006818;28;20302;-82
2023/09/23 01:23:12;;;;;;;0.40;0.30;;;11.00;99.90;;;;;;5007824;28;20198;-78
2023/09/23 01:25:38;;;;;;;0.40;0.20;;;11.00;99.90;;;;;;5003821;28;20206;-79
2023/09/23 01:28:08;;;;;;;0.40;0.20;;;13.40;99.90;;;;;;5004576;28;20769;-76
2023/09/23 01:30:35;;;;;;;0.40;0.30;;;10.90;99.90;;;;;;5003657;28;20180;-79
2023/09/23 01:33:04;;;;;;;0.40;0.30;;;;;;;;;;5007649;28;20689;-81
2023/09/23 01:35:32;;;;;;;0.40;0.30;;;10.90;99.90;;;;;;4988331;28;20322;-80
2023/09/23 01:37:59;;;;;;;0.40;0.30;;;10.90;99.90;;;;;;5007227;28;20217;-83
2023/09/23 01:40:29;;;;;;;0.40;0.20;;;10.90;99.90;;;;;;5002902;28;20806;-81
2023/09/23 01:42:54;;;;;;;0.40;0.40;;;11.10;99.90;;;;;;5003592;28;20214;-81
2023/09/23 01:45:22;;;;;;;0.40;0.20;;;11.00;99.90;;;;;;5001004;28;20252;-81
2023/09/23 01:47:49;;;;;;;0.40;0.20;;;11.00;99.90;;;;;;5007944;28;20225;-84
2023/09/23 01:50:17;;;;;;;0.40;0.20;;;11.10;99.90;;;;;;4989859;28;20213;-76
2023/09/23 01:52:43;;;;;;;0.40;0.20;;;11.00;99.90;;;;;;5015106;28;20186;-80
2023/09/23 01:55:10;;;;;;;0.40;0.20;;;11.00;99.90;;;;;;4985529;28;20681;-80
2023/09/23 01:57:36;;;;;;;0.40;0.20;;;11.00;99.90;;;;;;5004836;28;20254;-78
2023/09/23 02:00:04;;;;;;;0.40;0.30;;;11.00;99.90;;;;;;5007610;28;20274;-81
2023/09/23 02:02:30;;;;;;;0.40;0.30;;;10.90;99.90;;;;;;4987127;28;20238;-77
2023/09/23 02:04:56;;;;;;;0.40;0.20;;;10.80;99.90;;;;;;4980278;28;20238;-83
2023/09/23 02:07:22;;;;;;;0.40;0.20;;;10.80;99.90;;;;;;5003526;28;20233;-78
2023/09/23 02:09:47;;;;;;;0.40;0.30;;;10.80;99.90;;;;;;5005416;28;20178;-81
2023/09/23 02:12:14;;;;;;;0.40;0.30;;;10.80;99.90;;;;;;5003308;28;20237;-82
2023/09/23 02:14:42;;;;;;;0.40;0.30;;;10.70;99.90;;;;;;5004365;28;20779;-81
2023/09/23 02:17:08;;;;;;;0.40;0.30;;;10.70;99.90;;;;;;5005395;28;20236;-78
2023/09/23 02:19:34;;;;;;;0.40;0.30;;;10.70;99.90;;;;;;5003766;28;20277;-84
2023/09/23 02:22:05;;;;;;;0.40;0.20;;;;;;;;;;4999261;28;20280;-82
2023/09/23 02:24:31;;;;;;;0.40;0.20;;;10.70;99.90;;;;;;5002275;28;20460;-80
2023/09/23 02:26:57;;;;;;;0.40;0.20;;;10.70;99.90;;;;;;4978701;28;20202;-80
2023/09/23 02:29:23;;;;;;;0.40;0.30;;;;;;;;;;5004276;28;20190;-83
2023/09/23 02:31:49;;;;;;;0.40;0.20;;;10.70;99.90;;;;;;5004956;28;20222;-81
2023/09/23 02:34:20;;;;;;;0.40;0.30;;;10.60;99.90;;;;;;5004213;28;20873;-82
2023/09/23 02:36:45;;;;;;;0.40;0.30;;;10.70;99.90;;;;;;5001881;28;20222;-78
2023/09/23 02:39:20;;;;;;;0.40;0.20;;;10.60;99.90;;;;;;5001643;28;20668;-79
2023/09/23 02:41:50;;;;;;;0.57;0.40;;;10.70;99.90;;;;;;5003133;28;20212;-80
2023/09/23 02:44:22;;;;;;;0.40;0.30;;;10.60;99.90;;;;;;5001557;28;20206;-81
2023/09/23 02:46:53;;;;;;;0.40;0.30;;;10.50;99.90;;;;;;5001030;28;20178;-81
2023/09/23 02:49:19;;;;;;;0.40;0.20;;;10.60;99.90;;;;;;5002689;28;20337;-79
2023/09/23 02:51:45;;;;;;;0.40;0.20;;;10.60;99.90;;;;;;4985262;28;20277;-83
2023/09/23 02:54:13;;;;;;;0.40;0.20;;;10.50;99.90;;;;;;4984374;28;20300;-78
2023/09/23 02:56:42;;;;;;;0.40;0.20;;;10.50;99.90;;;;;;5014704;28;20194;-77
2023/09/23 02:59:13;;;;;;;0.40;0.20;;;10.50;99.90;;;;;;5005567;28;20300;-81
2023/09/23 03:01:42;;;;;;;0.40;0.20;;;10.50;99.90;;;;;;5001854;28;20206;-79
2023/09/23 03:04:16;;;;;;;0.40;0.20;;;10.50;99.90;;;;;;5000509;28;20214;-79
2023/09/23 03:06:43;;;;;;;0.40;0.20;;;;;;;;;;4978567;28;20264;-82
2023/09/23 03:09:10;;;;;;;0.40;0.20;;;10.60;99.90;;;;;;4993648;28;20185;-81
2023/09/23 03:11:47;;;;;;;0.40;0.20;;;;;;;;;;5004312;28;20193;-81
2023/09/23 03:14:17;;;;;;;0.40;0.20;;;10.70;99.90;;;;;;4983919;28;20274;-83
2023/09/23 03:16:44;;;;;;;0.40;0.30;;;10.70;99.90;;;;;;4975952;28;20572;-83
2023/09/23 03:19:11;;;;;;;0.40;0.20;;;;;;;;;;4982783;28;20187;-81
2023/09/23 03:21:41;;;;;;;0.40;0.30;;;10.60;99.90;;;;;;5002596;28;20248;-79
2023/09/23 03:24:06;;;;;;;0.40;0.20;;;10.70;99.90;;;;;;5007828;28;20234;-80
2023/09/23 03:26:32;;;;;;;0.40;0.20;;;10.80;99.90;;;;;;5002287;28;20228;-82
2023/09/23 03:28:57;;;;;;;0.40;0.20;;;10.70;99.90;;;;;;5002539;28;20252;-80
2023/09/23 03:31:23;;;;;;;0.40;0.20;;;10.70;99.90;;;;;;5003033;28;20687;-82
2023/09/23 03:33:48;;;;;;;0.40;0.20;;;10.50;99.90;;;;;;4998991;28;20201;-81
2023/09/23 03:36:15;;;;;;;0.40;0.20;;;10.50;99.90;;;;;;4985911;28;20186;-84
2023/09/23 03:38:41;;;;;;;0.40;0.20;;;10.50;99.90;;;;;;5003980;28;20178;-81
2023/09/23 03:41:11;;;;;;;0.40;0.20;;;10.50;99.90;;;;;;5004798;28;20206;-79
2023/09/23 03:43:38;;;;;;;0.40;0.30;;;10.50;99.90;;;;;;5005435;28;20198;-83
2023/09/23 03:46:10;;;;;;;0.40;0.20;;;11.90;99.90;;;;;;5004251;28;20210;-81
2023/09/23 03:48:37;;;;;;;0.40;0.30;;;;;;;;;;5004000;28;20182;-79
2023/09/23 03:51:04;;;;;;;0.40;0.20;;;10.40;99.90;;;;;;5005760;28;20198;-83
2023/09/23 03:53:30;;;;;;;0.40;0.20;;;10.50;99.90;;;;;;5003874;28;20413;-80
2023/09/23 03:55:59;;;;;;;0.40;0.20;;;10.40;99.90;;;;;;4997180;28;20210;-77
2023/09/23 03:58:26;;;;;;;0.40;0.20;;;10.40;99.90;;;;;;4983317;28;20197;-80
2023/09/23 04:00:54;;;;;;;0.40;0.25;;;10.40;99.90;;;;;;4986645;28;20190;-81
2023/09/23 04:03:20;;;;;;;0.40;0.20;;;;;;;;;;4999365;28;20766;-75
2023/09/23 04:05:57;;;;;;;0.40;0.30;;;10.30;99.90;;;;;;4986406;28;20213;-81
2023/09/23 04:08:23;;;;;;;0.40;0.30;;;10.30;99.90;;;;;;5005883;28;20536;-77
2023/09/23 04:10:50;;;;;;;0.40;0.20;;;10.20;99.90;;;;;;5003615;28;20570;-84
2023/09/23 04:13:15;;;;;;;0.40;0.20;;;10.20;99.90;;;;;;4988865;28;20190;-84
2023/09/23 04:15:42;;;;;;;0.40;0.20;;;10.10;99.90;;;;;;5005292;28;20202;-80
2023/09/23 04:18:09;;;;;;;0.40;0.30;;;9.60;99.90;;;;;;5000876;28;20186;-82
2023/09/23 04:20:35;;;;;;;0.40;0.28;;;10.10;99.90;;;;;;4983194;28;20188;-81
2023/09/23 04:23:02;;;;;;;0.40;0.20;;;10.20;99.90;;;;;;5001943;28;20212;-82
2023/09/23 04:25:28;;;;;;;0.40;0.20;;;10.20;99.90;;;;;;4980957;28;20210;-79
2023/09/23 04:27:54;;;;;;;0.40;0.20;;;10.20;99.90;;;;;;5001061;28;20200;-80
2023/09/23 04:30:20;;;;;;;0.40;0.20;;;10.20;99.90;;;;;;5003849;28;20444;-81
2023/09/23 04:32:46;;;;;;;0.40;0.20;;;10.20;99.90;;;;;;4981841;28;20198;-81
2023/09/23 04:35:13;;;;;;;0.40;0.30;;;10.10;99.90;;;;;;4987053;28;21297;-79
2023/09/23 04:37:39;;;;;;;0.40;0.30;;;10.20;99.90;;;;;;5004471;28;20755;-80
2023/09/23 04:40:09;;;;;;;0.40;0.20;;;10.10;99.90;;;;;;5006963;28;20229;-83
2023/09/23 04:42:35;;;;;;;0.70;0.70;;;10.00;99.90;;;;;;5004624;28;20230;-82
2023/09/23 04:45:02;;;;;;;0.40;0.20;;;10.00;99.90;;;;;;4997499;28;20217;-78
2023/09/23 04:47:27;;;;;;;0.40;0.30;;;10.00;99.90;;;;;;5010524;28;21062;-78
2023/09/23 04:49:54;;;;;;;0.40;0.20;;;10.00;99.90;;;;;;5017682;28;20200;-78
2023/09/23 04:52:20;;;;;;;0.40;0.20;;;9.90;99.90;;;;;;5006726;28;20243;-78
2023/09/23 04:54:46;;;;;;;0.40;0.20;;;9.90;99.90;;;;;;4984123;28;20221;-79
2023/09/23 04:57:13;;;;;;;0.40;0.25;;;10.00;99.90;;;;;;5000347;28;20182;-84
2023/09/23 04:59:39;;;;;;;0.60;0.57;;;9.90;99.90;;;;;;5000597;28;20190;-82
2023/09/23 05:02:04;;;;;;;0.40;0.20;;;9.90;99.90;;;;;;4993226;28;20212;-81
2023/09/23 05:04:30;;;;;;;0.40;0.20;;;9.80;99.90;;;;;;5000483;28;20216;-79
2023/09/23 05:06:56;;;;;;;0.40;0.20;;;9.80;99.90;;;;;;4996112;28;20281;-80
2023/09/23 05:09:25;;;;;;;0.40;0.20;;;;;;;;;;5003319;28;20437;-82
2023/09/23 05:11:51;;;;;;;0.40;0.28;;;10.00;99.90;;;;;;5001835;28;20213;-81
2023/09/23 05:14:17;;;;;;;0.40;0.20;;;10.10;99.90;;;;;;5004556;28;20210;-83
2023/09/23 05:16:42;;;;;;;0.40;0.20;;;10.10;99.90;;;;;;5005345;28;20437;-82
2023/09/23 05:19:09;;;;;;;0.40;0.30;;;10.20;99.90;;;;;;5004176;28;20513;-76
2023/09/23 05:21:35;;;;;;;0.40;0.30;;;10.20;99.90;;;;;;5001485;28;20182;-80
2023/09/23 05:24:01;;;;;;;0.40;0.20;;;10.30;99.90;;;;;;4999703;28;20198;-81
2023/09/23 05:26:27;;;;;;;0.40;0.20;;;10.30;99.90;;;;;;4994901;28;20190;-81
2023/09/23 05:28:52;;;;;;;0.40;0.20;;;10.40;99.90;;;;;;4979529;28;20206;-79
2023/09/23 05:31:18;;;;;;;0.40;0.30;;;10.50;99.90;;;;;;5004044;28;20194;-81
2023/09/23 05:33:43;;;;;;;0.40;0.30;;;11.10;99.90;;;;;;5001414;28;20230;-79
2023/09/23 05:36:10;;;;;;;0.40;0.20;;;11.10;99.90;;;;;;5002858;28;20214;-82
2023/09/23 05:38:36;;;;;;;0.40;0.30;;;11.50;99.90;;;;;;5001189;28;20179;-81
2023/09/23 05:41:03;;;;;;;0.40;0.20;;;11.80;99.90;;;;;;5001679;28;20187;-79
2023/09/23 05:43:29;;;;;;;0.40;0.20;;;13.10;99.90;;;;;;4994790;28;20217;-81
2023/09/23 05:45:55;;;;;;;0.40;0.25;;;14.00;99.90;;;;;;5004756;28;20449;-80
2023/09/23 05:48:20;;;;;;;0.40;0.20;;;14.30;99.90;;;;;;4987712;28;20189;-78
2023/09/23 05:50:46;;;;;;;0.40;0.20;;;14.20;99.90;;;;;;5008272;28;20772;-76
2023/09/23 05:53:11;;;;;;;0.40;0.30;;;13.70;99.90;;;;;;5003345;28;20249;-76
2023/09/23 05:55:37;;;;;;;0.40;0.30;;;13.50;99.90;;;;;;5014934;28;20216;-82
2023/09/23 05:58:03;;;;;;;0.40;0.30;;;13.40;99.90;;;;;;5007874;28;20187;-84
2023/09/23 06:00:28;;;;;;;0.40;0.30;;;13.20;99.90;;;;;;5003197;28;20190;-81
2023/09/23 06:02:54;;;;;;;0.40;0.20;;;13.10;99.90;;;;;;4999777;28;20224;-81
2023/09/23 06:05:20;;;;;;;0.40;0.20;;;12.70;99.90;;;;;;5008426;28;20203;-81
2023/09/23 06:07:45;;;;;;;0.40;0.30;;;12.50;99.90;;;;;;4989455;28;20187;-84
2023/09/23 06:10:11;;;;;;;0.40;0.20;;;12.60;99.90;;;;;;5005812;28;20445;-81
2023/09/23 06:12:36;;;;;;;0.40;0.20;;;13.00;99.90;;;;;;5002198;28;20239;-80
2023/09/23 06:15:03;;;;;;;0.40;0.20;;;13.50;99.90;;;;;;5004405;28;20710;-88
2023/09/23 06:17:29;;;;;;;0.40;0.30;;;13.80;99.90;;;;;;5003967;28;20839;-83
2023/09/23 06:19:59;;;;;;;0.40;0.20;;;14.80;99.90;;;;;;5001589;28;20444;-84
2023/09/23 06:22:26;;;;;;;0.40;0.20;;;15.70;99.90;;;;;;4976821;28;20217;-87
2023/09/23 06:24:52;;;;;;;0.40;0.20;;;17.10;99.90;;;;;;5004392;28;20472;-83
2023/09/23 06:27:18;;;;;;;0.40;0.30;;;17.10;99.90;;;;;;5006443;28;20553;-81
2023/09/23 06:29:44;;;;;;;0.40;0.20;;;17.20;99.90;;;;;;4980986;28;20610;-80
2023/09/23 06:32:10;;;;;;;0.40;0.20;;;17.00;99.90;;;;;;4990200;28;20567;-80
2023/09/23 06:34:36;;;;;;;0.40;0.20;;;16.80;99.90;;;;;;5006767;28;20473;-82
2023/09/23 06:37:02;;;;;;;0.40;0.30;;;;;;;;;;4978822;28;20272;-79
2023/09/23 06:39:28;;;;;;;0.40;0.20;;;17.70;99.90;;;;;;4981722;28;20193;-80
2023/09/23 06:41:54;;;;;;;0.40;0.20;;;17.80;99.90;;;;;;4986041;28;20465;-80
2023/09/23 06:44:19;;;;;;;0.40;0.30;;;18.00;99.90;;;;;;5008532;28;20285;-84
2023/09/23 06:46:45;;;;;;;0.40;0.30;;;;;;;;;;4988281;28;20433;-79
2023/09/23 06:49:11;;;;;;;0.40;0.30;;;;;;;;;;4978997;28;20182;-78
2023/09/23 06:51:37;;;;;;;0.40;0.20;;;17.70;99.90;;;;;;4981577;28;20803;-81
2023/09/23 06:54:02;;;;;;;0.40;0.20;;;17.70;99.90;;;;;;5004354;28;20527;-83
2023/09/23 06:56:28;;;;;;;0.40;0.30;;;17.80;99.90;;;;;;5007267;28;20198;-83
2023/09/23 06:58:54;;;;;;;0.40;0.20;;;18.30;99.90;;;;;;4982935;28;20273;-77
2023/09/23 07:01:21;;;;;;;0.40;0.30;;;17.40;99.90;;;;;;5020202;28;20221;-79
2023/09/23 07:03:47;;;;;;;0.40;0.30;;;19.30;99.90;;;;;;5000290;28;20218;-78
2023/09/23 07:06:13;;;;;;;0.40;0.20;;;;;;;;;;4989608;28;20467;-82
2023/09/23 07:08:38;;;;;;;0.40;0.20;;;19.30;99.90;;;;;;4987844;28;20194;-78
2023/09/23 07:11:10;;;;;;;0.40;0.30;;;20.00;99.90;;;;;;5006821;28;20448;-80
2023/09/23 07:13:35;;;;;;;0.40;0.20;;;19.70;99.90;;;;;;5010208;28;20205;-82
2023/09/23 07:16:01;;;;;;;0.40;0.30;;;20.10;99.90;;;;;;4990519;28;21010;-82
2023/09/23 07:18:29;;;;;;;0.40;0.20;;;20.00;99.90;;;;;;5007667;28;20190;-80
2023/09/23 07:20:56;;;;;;;0.40;0.20;;;20.00;99.90;;;;;;5006110;28;20189;-82
2023/09/23 07:23:22;;;;;;;0.40;0.27;;;19.40;99.90;;;;;;4980282;28;20944;-80
2023/09/23 07:25:48;;;;;;;0.40;0.30;;;;;;;;;;4989631;28;20465;-79
2023/09/23 07:28:13;;;;;;;0.40;0.20;;;19.10;99.90;;;;;;4990385;28;20855;-82
2023/09/23 07:30:39;;;;;;;0.40;0.27;;;;;;;;;;5003240;28;21037;-80
2023/09/23 07:33:05;;;;;;;0.40;0.30;;;18.90;99.90;;;;;;4983248;28;20197;-78
2023/09/23 07:35:32;;;;;;;0.40;0.30;;;18.40;99.90;;;;;;5004666;28;20469;-80
2023/09/23 07:37:59;;;;;;;0.40;0.20;;;18.20;99.90;;;;;;5005608;28;20186;-80
2023/09/23 07:40:25;;;;;;;0.40;0.23;;;18.90;99.90;;;;;;5007649;28;20935;-78
2023/09/23 07:42:51;;;;;;;0.40;0.27;;;18.90;99.90;;;;;;5004792;28;20556;-83
2023/09/23 07:45:16;;;;;;;0.40;0.20;;;18.50;99.90;;;;;;4988484;28;20563;-81
2023/09/23 07:47:42;;;;;;;0.40;0.30;;;;;;;;;;4993798;28;20193;-82
2023/09/23 07:50:08;;;;;;;0.40;0.30;;;20.10;99.90;;;;;;4994361;28;20194;-86
2023/09/23 07:52:34;;;;;;;0.40;0.20;;;20.50;99.90;;;;;;5009747;28;20810;-84
2023/09/23 07:55:00;;;;;;;0.40;0.23;;;21.50;99.90;;;;;;5011396;28;20210;-83
2023/09/23 07:57:26;;;;;;;0.40;0.30;;;21.80;99.90;;;;;;5020120;28;21015;-85
2023/09/23 07:59:51;;;;;;;0.40;0.30;;;21.30;99.90;;;;;;5019919;28;20301;-79
2023/09/23 08:02:17;;;;;;;0.40;0.20;;;21.40;99.90;;;;;;5022109;28;20284;-83
2023/09/23 08:04:42;;;;;;;0.40;0.20;;;21.40;99.90;;;;;;5015669;28;20838;-84
2023/09/23 08:07:08;;;;;;;0.40;0.30;;;21.90;99.90;;;;;;5017778;28;20196;-81
2023/09/23 08:09:33;;;;;;;0.40;0.30;;;21.00;99.90;;;;;;5016167;28;20625;-80
2023/09/23 08:11:59;;;;;;;0.40;0.30;;;21.70;99.90;;;;;;4999936;28;20317;-82
2023/09/23 08:14:25;;;;;;;0.40;0.20;;;21.80;99.90;;;;;;4986823;28;20758;-83
2023/09/23 08:16:50;;;;;;;0.40;0.30;;;21.90;99.90;;;;;;5008631;28;20209;-82
2023/09/23 08:19:16;;;;;;;0.40;0.20;;;21.70;99.30;;;;;;4992907;28;21010;-84
2023/09/23 08:21:42;;;;;;;0.40;0.30;;;;;;;;;;5008587;28;20548;-85
2023/09/23 08:24:08;;;;;;;0.40;0.30;;;22.00;96.70;;;;;;4991958;28;20527;-81
2023/09/23 08:26:34;;;;;;;0.40;0.20;;;21.50;98.20;;;;;;4991568;28;20425;-82
2023/09/23 08:28:59;;;;;;;0.40;0.20;;;22.00;99.10;;;;;;5010023;28;20463;-85
2023/09/23 08:31:25;;;;;;;0.40;0.30;;;22.40;97.00;;;;;;4993796;28;20189;-82
2023/09/23 08:33:51;;;;;;;0.40;0.20;;;;;;;;;;5009863;28;20241;-84
2023/09/23 08:36:16;;;;;;;0.40;0.30;;;19.80;99.50;;;;;;5012873;28;20786;-82
2023/09/23 08:38:42;;;;;;;0.40;0.30;;;20.40;99.90;;;;;;5020450;28;20500;-84
2023/09/23 08:41:08;;;;;;;0.40;0.30;;;19.80;99.40;;;;;;4984260;28;20280;-80
2023/09/23 08:43:37;;;;;;;0.40;0.30;;;19.80;99.90;;;;;;5006544;28;20509;-83
2023/09/23 08:46:05;;;;;;;0.40;0.30;;;21.70;99.90;;;;;;5002047;28;20210;-82
2023/09/23 08:48:31;;;;;;;0.40;0.30;;;23.00;99.60;;;;;;4983745;28;20445;-83
2023/09/23 08:51:00;;;;;;;0.40;0.30;;;21.90;96.60;;;;;;4999644;28;20969;-80
2023/09/23 08:53:27;;;;;;;0.40;0.27;;;20.80;97.10;;;;;;5003032;28;20489;-84
2023/09/23 08:55:53;;;;;;;0.40;0.30;;;21.00;99.90;;;;;;5002948;28;20477;-84
2023/09/23 08:58:19;;;;;;;0.40;0.30;;;21.20;99.70;;;;;;4980987;28;20981;-83
2023/09/23 09:00:46;;;;;;;0.40;0.30;;;22.30;98.60;;;;;;5001938;28;20453;-84
2023/09/23 09:03:12;;;;;;;0.40;0.20;;;21.50;98.50;;;;;;5000795;28;20260;-83
2023/09/23 09:05:43;;;;;;;0.40;0.30;;;19.60;99.60;;;;;;4996803;28;20492;-82
2023/09/23 09:08:09;;;;;;;0.73;0.67;;;20.10;99.90;;;;;;5001880;28;20460;-79
2023/09/23 09:10:35;;;;;;;0.40;0.20;;;21.10;99.90;;;;;;5004656;28;20441;-88
2023/09/23 09:13:04;;;;;;;0.40;0.30;;;22.10;98.90;;;;;;4982378;28;20843;-86
2023/09/23 09:15:32;;;;;;;0.40;0.30;;;22.60;98.70;;;;;;4986701;28;20331;-85
2023/09/23 09:17:58;;;;;;;0.40;0.30;;;22.70;97.70;;;;;;5005093;28;21055;-83
2023/09/23 09:20:24;;;;;;;0.40;0.30;;;22.40;98.40;;;;;;5009138;28;20441;-80
2023/09/23 09:22:51;;;;;;;0.40;0.20;;;20.70;96.00;;;;;;5016244;28;20468;-82
2023/09/23 09:25:21;;;;;;;0.40;0.27;;;20.00;99.90;;;;;;5008423;28;20214;-86
2023/09/23 09:27:47;;;;;;;0.40;0.30;;;20.00;99.90;;;;;;5007832;28;20437;-84
2023/09/23 09:30:13;;;;;;;0.40;0.20;;;20.10;99.90;;;;;;4980420;28;20438;-84
2023/09/23 09:32:42;;;;;;;0.40;0.30;;;19.70;99.90;;;;;;5006984;28;20460;-80
2023/09/23 09:35:15;;;;;;;0.40;0.20;;;19.80;99.90;;;;;;4988816;28;20222;-81
2023/09/23 09:37:48;;;;;;;0.40;0.20;;;20.60;99.90;;;;;;4986894;28;20987;-82
2023/09/23 09:40:20;;;;;;;0.40;0.30;;;20.90;99.90;;;;;;5009667;28;20954;-81
2023/09/23 09:42:53;;;;;;;0.40;0.30;;;20.70;99.00;;;;;;5014610;28;20529;-80
2023/09/23 09:45:19;;;;;;;0.40;0.30;;;19.80;98.90;;;;;;5005208;28;20456;-84
2023/09/23 09:47:48;;;;;;;0.40;0.30;;;19.20;99.90;;;;;;5006441;28;20456;-83
2023/09/23 09:50:14;;;;;;;0.40;0.30;;;;;;;;;;5009781;28;20456;-83
2023/09/23 09:52:43;;;;;;;0.40;0.30;;;19.60;99.90;;;;;;5006668;28;20441;-81
2023/09/23 09:55:14;;;;;;;0.60;0.30;;;20.10;99.90;;;;;;4974668;28;20465;-83
2023/09/23 09:57:40;;;;;;;0.40;0.23;;;20.30;98.80;;;;;;4982676;28;21032;-85
2023/09/23 10:00:50;;;;;;;0.40;0.20;;;20.50;99.90;;;;;;5004789;28;21366;-83
2023/09/23 10:03:08;;;;;;;0.67;0.50;;;20.30;99.90;;;;;;4996546;28;20220;-82
2023/09/23 10:05:42;;;;;;;0.40;0.30;;;19.30;99.90;;;;;;4996800;28;20487;-84
2023/09/23 10:08:13;;;;;;;0.40;0.20;;;19.50;99.90;;;;;;5004194;28;20473;-80
2023/09/23 10:10:44;;;;;;;0.40;0.20;;;19.40;99.90;;;;;;5005839;28;20461;-86
2023/09/23 10:13:14;;;;;;;0.40;0.30;;;18.20;99.90;;;;;;5004963;28;20445;-82
2023/09/23 10:15:40;;;;;;;0.40;0.30;;;17.30;99.90;;;;;;5005298;28;20468;-82
2023/09/23 10:18:19;;;;;;;0.40;0.30;;;17.00;99.90;;;;;;4999507;28;21078;-85
2023/09/23 10:20:54;;;;;;;0.40;0.30;;;16.70;99.90;;;;;;5006091;28;20444;-83
2023/09/23 10:23:21;;;;;;;0.40;0.30;;;16.70;99.90;;;;;;5006892;28;20526;-82
2023/09/23 10:25:51;;;;;;;0.40;0.20;;;17.30;99.90;;;;;;4979536;28;20469;-82
2023/09/23 10:28:26;;;;;;;0.40;0.20;;;17.90;99.90;;;;;;5004381;28;20599;-83
2023/09/23 10:31:05;;;;;;;0.40;0.20;;;18.30;99.90;;;;;;5015306;28;20441;-78
2023/09/23 10:33:34;;;;;;;0.40;0.30;;;18.40;99.90;;;;;;4987554;28;20460;-82
2023/09/23 10:36:00;;;;;;;0.40;0.20;;;18.20;99.90;;;;;;5001134;28;20476;-84
2023/09/23 10:38:31;;;;;;;0.40;0.33;;;18.10;99.90;;;;;;4998210;28;20451;-85
2023/09/23 10:40:58;;;;;;;0.40;0.20;;;17.90;99.90;;;;;;5002472;28;20441;-87
2023/09/23 10:43:24;;;;;;;0.40;0.30;;;17.70;99.90;;;;;;5003434;28;20470;-82
2023/09/23 10:45:53;;;;;;;0.40;0.20;;;18.10;99.90;;;;;;4996615;28;20452;-81
2023/09/23 10:48:18;;;;;;;0.40;0.20;;;17.70;99.90;;;;;;4995000;28;20187;-82
2023/09/23 10:50:44;;;;;;;0.40;0.20;;;17.20;99.90;;;;;;5004500;28;20481;-82
2023/09/23 10:53:12;;;;;;;0.40;0.30;;;17.10;99.90;;;;;;4998665;28;20217;-82
2023/09/23 10:55:39;;;;;;;0.40;0.20;;;16.90;99.90;;;;;;4997840;28;21058;-82
2023/09/23 10:58:09;;;;;;;0.40;0.20;;;17.30;99.90;;;;;;5001435;28;20938;-83
2023/09/23 11:00:38;;;;;;;0.40;0.30;;;17.90;99.90;;;;;;4985049;28;20537;-84
2023/09/23 11:03:09;;;;;;;0.40;0.20;;;17.70;99.90;;;;;;5005723;28;20464;-79
2023/09/23 11:05:37;;;;;;;0.40;0.30;;;17.70;99.90;;;;;;4999197;28;20596;-84
2023/09/23 11:08:04;;;;;;;0.40;0.30;;;17.80;99.90;;;;;;4981268;28;20532;-82
2023/09/23 11:10:31;;;;;;;0.40;0.30;;;17.40;99.90;;;;;;5000241;28;20433;-83
2023/09/23 11:12:56;;;;;;;2.67;2.57;;;17.20;99.90;;;;;;4982859;28;20441;-81
2023/09/23 11:15:22;;;;;;;0.40;0.30;;;19.60;99.90;;;;;;4993688;28;20892;-84
2023/09/23 11:17:47;;;;;;;4.77;4.40;;;19.30;99.90;;;;;;4998404;28;20198;-82
2023/09/23 11:20:13;;;;;;;1.73;1.63;;;19.20;99.90;;;;;;4998022;28;20199;-81
2023/09/23 11:22:43;;;;;;;2.00;1.63;;;;;;;;;;4980589;28;21180;-80
2023/09/23 11:25:12;;;;;;;1.90;1.33;;;19.50;99.90;;;;;;5000794;28;20241;-81
2023/09/23 11:27:37;;;;;;;1.37;1.27;;;19.90;99.90;;;;;;4981392;28;20554;-85
2023/09/23 11:30:04;;;;;;;0.40;0.20;;;19.90;99.90;;;;;;4990095;28;20453;-79
2023/09/23 11:32:31;;;;;;;0.40;0.30;;;19.90;99.90;;;;;;5013182;28;20455;-84
2023/09/23 11:34:57;;;;;;;0.40;0.20;;;19.60;99.90;;;;;;5011291;28;20646;-78
2023/09/23 11:37:23;;;;;;;0.40;0.30;;;19.10;99.90;;;;;;5010127;28;20556;-83
2023/09/23 11:39:49;;;;;;;0.40;0.20;;;18.90;99.90;;;;;;5014408;28;20515;-76
2023/09/23 11:42:15;;;;;;;0.40;0.20;;;18.30;99.90;;;;;;5014147;28;20213;-80
2023/09/23 11:44:41;;;;;;;0.40;0.27;;;;;;;;;;5003173;28;20473;-81
2023/09/23 11:47:06;;;;;;;0.40;0.30;;;17.80;99.90;;;;;;4979089;28;20272;-76
2023/09/23 11:49:32;;;;;;;0.40;0.20;;;17.40;99.90;;;;;;4985091;28;20441;-80
2023/09/23 11:51:59;;;;;;;0.40;0.27;;;17.30;99.90;;;;;;5004186;28;20190;-84
2023/09/23 11:54:24;;;;;;;0.40;0.20;;;17.40;99.90;;;;;;4979237;28;20567;-79
2023/09/23 11:56:50;;;;;;;1.90;0.87;;;17.30;99.90;;;;;;5000280;28;20982;-81
2023/09/23 11:59:20;;;;;;;0.40;0.20;;;17.10;99.90;;;;;;5001499;28;20562;-78
2023/09/23 12:01:47;;;;;;;0.40;0.20;;;;;;;;;;5002046;28;20186;-83
2023/09/23 12:04:13;;;;;;;0.40;0.20;;;16.90;99.90;;;;;;5002013;28;20460;-81
2023/09/23 12:06:39;;;;;;;0.40;0.20;;;17.10;99.90;;;;;;5006629;28;20448;-81
2023/09/23 12:09:08;;;;;;;0.40;0.30;;;17.10;99.90;;;;;;5004897;28;20536;-81
2023/09/23 12:11:34;;;;;;;0.93;0.93;;;17.10;99.90;;;;;;5005712;28;20247;-79
2023/09/23 12:14:00;;;;;;;0.40;0.20;;;14.20;99.90;;;;;;5004053;28;20508;-82
2023/09/23 12:16:26;;;;;;;0.40;0.30;;;17.00;99.90;;;;;;5000168;28;20186;-81
2023/09/23 12:18:52;;;;;;;0.40;0.23;;;17.10;99.90;;;;;;4985984;28;20280;-78
2023/09/23 12:21:18;;;;;;;0.40;0.30;;;;;;;;;;5004617;28;21269;-84
2023/09/23 12:23:44;;;;;;;0.40;0.30;;;;;;;;;;5011702;28;20253;-79
2023/09/23 12:26:09;;;;;;;0.40;0.20;;;18.50;99.90;;;;;;5004013;28;20552;-82
2023/09/23 12:28:40;;;;;;;0.40;0.23;;;18.90;99.90;;;;;;4986377;28;20441;-81
2023/09/23 12:31:05;;;;;;;0.40;0.30;;;18.70;99.90;;;;;;5012910;28;20465;-85
2023/09/23 12:33:31;;;;;;;0.40;0.27;;;18.70;99.90;;;;;;5022244;28;20472;-84
2023/09/23 12:35:57;;;;;;;0.40;0.20;;;19.90;99.90;;;;;;5017856;28;20456;-86
2023/09/23 12:38:32;;;;;;;0.40;0.30;;;18.40;99.90;;;;;;4997161;28;20716;-84
2023/09/23 12:44:36;;;;;;;0.40;0.20;;;18.90;99.90;;;;;;5018081;28;20464;-86
2023/09/23 12:47:03;;;;;;;0.40;0.30;;;20.50;99.90;;;;;;5001890;28;20433;-88
2023/09/23 12:49:30;;;;;;;0.40;0.30;;;19.50;99.90;;;;;;5022295;28;20169;-83
2023/09/23 12:51:56;;;;;;;0.40;0.30;;;;;;;;;;5011039;28;20448;-83
2023/09/23 12:54:22;;;;;;;0.40;0.30;;;;;;;;;;4991464;28;21210;-84
2023/09/23 12:56:48;;;;;;;1.13;0.40;;;19.00;99.90;;;;;;4995637;28;20468;-84
2023/09/23 12:59:13;;;;;;;0.40;0.30;;;18.60;99.90;;;;;;5010462;28;20444;-84
2023/09/23 13:01:39;;;;;;;0.40;0.30;;;18.30;99.90;;;;;;4980248;28;20730;-85